Billings, MT

4:59 AM MDT on August 30, 2014 (GMT -0600)
Downtown Billings | Change Station
CLOSE
Current Station
Personal Weather Station
Location: Billings, MT
Elevation: 3127 ft
Nearby Weather Stations

Elev 3127 ft 45.78 °N, 108.50 °W | Updated 7 minutes ago

Scattered Clouds
Scattered Clouds
61.1 °F
Feels Like 61.1 °F
N
2.2
Wind Variable Wind from WSW
Gusts 3.4 mph

Today
High -- | Low -- °F
--% Chance of Precip.
Yesterday
High -- | Low -- °F
Precip. -- in
6:32 AM 7:55 PM
Waxing Crescent, 21% visible
Pressure 29.74 in
Visibility 10.0 miles
Clouds Few 17000 ft
Scattered Clouds 20000 ft
Dew Point 55 °F
Humidity 80%
Rainfall -999.00 in
Snow Depth Not available.
UV 0 out of 12
Pollen 6.90 out of 12
Air Quality Not available.
Flu Activity Not available.
METAR KBIL 300953Z 31005KT 10SM FEW170 SCT200 15/11 A2982 RMK AO2 SLP070 T01500111

More Conditions Fewer Conditions

Pressure 29.74 in
Visibility 10.0 miles
Clouds Few 17000 ft
Scattered Clouds 20000 ft
Dew Point 55 °F
Humidity 80%
Rainfall -999.00 in
Snow Depth Not available.
UV 0 out of 12
Pollen 6.90 out of 12
Air Quality Not available.
Flu Activity Not available.
METAR KBIL 300953Z 31005KT 10SM FEW170 SCT200 15/11 A2982 RMK AO2 SLP070 T01500111

More Conditions Fewer Conditions

10-Day Weather Forecast

Almanac

Astronomy

Aug. 30, 2014 Rise Set
Actual Time 6:32 AM MDT 7:55 PM MDT
Civil Twilight 6:01 AM MDT 8:26 PM MDT
Nautical Twilight 5:24 AM MDT 9:03 PM MDT
Astronomical Twilight 4:44 AM MDT 9:43 PM MDT
Moon 11:40 AM MDT 10:14 PM MDT
Length of Visible Light 14h 24m
Length of Day
13h 22m
Tomorrow will be 3m 6s shorter.
Waxing Crescent, 21% of the Moon is Illuminated
Today
Waxing Crescent
Sep 2
First Quarter
Sep 8
Full
Sep 15
Last Quarter
Sep 24
New

Today's Extremes

State Highs State Lows

Community

WunderPhotos

Upload Photos

1,748,482 photos uploaded!

WunderBlogs® & News

By Dr. Jeff Masters
Director of Meteorology, Weather Underground
By Kari Strenfel
Meteorologist, Weather Underground
By Christopher C. Burt
Weather Historian, Weather Underground
August 30, 2014
August 29, 2014
August 29, 2014

Nearby

Snow Depth

Station Depth Elevation
Cole Creek 0 in 7850 ft
Crystal Lake 0 in 6050 ft
White Mill 2 in 8700 ft
Northeast Entrance 0 in 7350 ft
Monument Peak 0 in 8850 ft

Earthquake Activity

City Distance Mag. Time & Date
No recent earthquake activity has been reported nearby.
Minimum magnitude displayed is 2.5.

Coastal Water Temperatures

Place Temperature
No Stations Reporting

Nearby Weather Stations